createdAt,value
2023-04-01T00:01:16.195Z,99037.40
2023-04-01T00:03:44.466Z,99047.80
2023-04-01T00:06:18.903Z,99037.20
2023-04-01T00:08:47.896Z,99037.80
2023-04-01T00:11:17.089Z,99031.40
2023-04-01T00:13:45.551Z,99040.40
2023-04-01T00:16:21.571Z,99039.20
2023-04-01T00:18:52.808Z,99043.20
2023-04-01T00:21:22.047Z,99043.20
2023-04-01T00:23:52.126Z,99041.00
2023-04-01T00:26:23.013Z,99049.00
2023-04-01T00:28:52.195Z,99042.20
2023-04-01T00:31:21.709Z,99048.80
2023-04-01T00:33:49.645Z,99045.60
2023-04-01T00:36:25.331Z,99041.80
2023-04-01T00:38:53.138Z,99051.20
2023-04-01T00:41:22.636Z,99054.20
2023-04-01T00:43:52.336Z,99058.80
2023-04-01T00:46:20.518Z,99057.60
2023-04-01T00:48:54.469Z,99054.40
2023-04-01T00:51:28.425Z,99049.20
2023-04-01T00:54:02.901Z,99053.40
2023-04-01T00:56:39.342Z,99042.20
2023-04-01T00:59:23.688Z,99045.60
2023-04-01T01:01:52.346Z,99040.00
2023-04-01T01:04:33.578Z,99037.80
2023-04-01T01:07:21.473Z,99035.60
2023-04-01T01:10:48.495Z,99037.80
2023-04-01T01:14:04.261Z,99038.00
2023-04-01T01:16:41.945Z,99038.60
2023-04-01T01:19:29.936Z,99037.20
2023-04-01T01:22:29.781Z,99044.20
2023-04-01T01:25:17.721Z,99044.20
2023-04-01T01:28:07.980Z,99045.40
2023-04-01T01:30:51.565Z,99055.80
2023-04-01T01:33:41.949Z,99055.60
2023-04-01T01:36:14.951Z,99060.80
2023-04-01T01:38:43.335Z,99052.00
2023-04-01T01:41:16.781Z,99060.40
2023-04-01T01:43:49.616Z,99057.60
2023-04-01T01:46:23.927Z,99062.20
2023-04-01T01:48:54.143Z,99059.40
2023-04-01T01:51:23.812Z,99066.40
2023-04-01T01:53:51.606Z,99060.20
2023-04-01T01:56:24.854Z,99060.00
2023-04-01T01:59:01.299Z,99056.80
2023-04-01T02:01:34.747Z,99057.00
2023-04-01T02:04:05.299Z,99062.20
2023-04-01T02:06:39.728Z,99058.00
2023-04-01T02:09:11.821Z,99061.80
2023-04-01T02:12:02.178Z,99056.80
2023-04-01T02:14:51.747Z,99057.00
2023-04-01T02:17:24.528Z,99064.00
2023-04-01T02:19:59.411Z,99068.40
2023-04-01T02:22:42.651Z,99065.20
2023-04-01T02:25:19.248Z,99063.40
2023-04-01T02:27:48.401Z,99067.00
2023-04-01T02:30:18.491Z,99061.80
2023-04-01T02:32:48.157Z,99063.80
2023-04-01T02:35:18.742Z,99063.60
2023-04-01T02:37:51.646Z,99065.20
2023-04-01T02:40:19.639Z,99069.80
2023-04-01T02:42:47.686Z,99073.20
2023-04-01T02:45:16.100Z,99074.20
2023-04-01T02:47:43.917Z,99077.00
2023-04-01T02:50:11.954Z,99075.20
2023-04-01T02:52:39.725Z,99081.60
2023-04-01T02:55:08.032Z,99080.00
2023-04-01T02:57:36.151Z,99083.80
2023-04-01T03:00:05.202Z,99083.40
2023-04-01T03:02:33.039Z,99083.60
2023-04-01T03:05:00.924Z,99090.60
2023-04-01T03:07:28.685Z,99092.20
2023-04-01T03:09:56.456Z,99092.00
2023-04-01T03:12:24.194Z,99091.00
2023-04-01T03:14:52.009Z,99087.40
2023-04-01T03:17:19.750Z,99094.60
2023-04-01T03:19:47.521Z,99092.80
2023-04-01T03:22:15.691Z,99096.40
2023-04-01T03:24:43.555Z,99099.20
2023-04-01T03:27:11.285Z,99094.60
2023-04-01T03:29:39.114Z,99096.80
2023-04-01T03:32:07.138Z,99099.80
2023-04-01T03:34:37.642Z,99106.20
2023-04-01T03:37:05.429Z,99106.00
2023-04-01T03:39:33.260Z,99108.00
2023-04-01T03:42:00.986Z,99101.40
2023-04-01T03:44:43.796Z,99112.00
2023-04-01T03:47:11.634Z,99104.80
2023-04-01T03:49:39.395Z,99106.40
2023-04-01T03:52:11.940Z,99110.80
2023-04-01T03:54:39.755Z,99105.20
2023-04-01T03:57:07.592Z,99116.00
2023-04-01T03:59:35.919Z,99111.40
2023-04-01T04:02:04.264Z,99113.60
2023-04-01T04:04:33.349Z,99112.40
2023-04-01T04:07:01.643Z,99114.00
2023-04-01T04:09:32.974Z,99117.00
2023-04-01T04:12:02.735Z,99120.20
2023-04-01T04:14:30.899Z,99118.40
2023-04-01T04:16:59.387Z,99127.40
2023-04-01T04:19:27.484Z,99127.20
2023-04-01T04:21:55.632Z,99127.00
2023-04-01T04:24:23.812Z,99128.80
2023-04-01T04:26:51.932Z,99123.80
2023-04-01T04:29:20.109Z,99124.40
2023-04-01T04:31:48.063Z,99125.80
2023-04-01T04:34:15.905Z,99127.40
2023-04-01T04:36:44.246Z,99130.20
2023-04-01T04:39:11.987Z,99126.40
2023-04-01T04:41:39.914Z,99133.20
2023-04-01T04:44:08.500Z,99132.60
2023-04-01T04:46:38.345Z,99135.60
2023-04-01T04:49:07.618Z,99136.20
2023-04-01T04:51:36.941Z,99132.80
2023-04-01T04:54:05.795Z,99137.20
2023-04-01T04:56:34.286Z,99140.80
2023-04-01T04:59:02.434Z,99141.80
2023-04-01T05:01:30.458Z,99142.80
2023-04-01T05:03:58.330Z,99137.20
2023-04-01T05:06:30.465Z,99144.20
2023-04-01T05:08:58.694Z,99143.80
2023-04-01T05:11:27.290Z,99145.60
2023-04-01T05:13:55.203Z,99151.40
2023-04-01T05:16:23.104Z,99152.80
2023-04-01T05:18:51.038Z,99148.80
2023-04-01T05:21:18.894Z,99152.20
2023-04-01T05:23:46.785Z,99158.00
2023-04-01T05:26:16.071Z,99157.80
2023-04-01T05:28:43.943Z,99161.20
2023-04-01T05:31:11.997Z,99163.20
2023-04-01T05:33:40.794Z,99166.40
2023-04-01T05:36:15.477Z,99168.60
2023-04-01T05:38:46.835Z,99168.60
2023-04-01T05:41:16.325Z,99169.00
2023-04-01T05:43:44.406Z,99164.60
2023-04-01T05:46:12.440Z,99171.80
2023-04-01T05:48:40.404Z,99168.40
2023-04-01T05:51:16.059Z,99177.40
2023-04-01T05:53:44.270Z,99182.60
2023-04-01T05:56:12.331Z,99182.80
2023-04-01T05:58:41.066Z,99182.40
2023-04-01T06:01:16.221Z,99189.80
2023-04-01T06:03:44.781Z,99194.20
2023-04-01T06:06:25.344Z,99202.60
2023-04-01T06:08:56.481Z,99201.60
2023-04-01T06:11:41.841Z,99202.60
2023-04-01T06:14:51.795Z,99203.00
2023-04-01T06:17:31.517Z,99215.40
2023-04-01T06:20:22.476Z,99213.00
2023-04-01T06:23:13.442Z,99210.60
2023-04-01T06:26:13.148Z,99209.40
2023-04-01T06:29:12.618Z,99214.40
2023-04-01T06:32:19.262Z,99223.60
2023-04-01T06:35:44.406Z,99226.20
2023-04-01T06:38:46.327Z,99227.00
2023-04-01T06:41:35.016Z,99228.20
2023-04-01T06:44:40.883Z,99234.40
2023-04-01T06:47:43.824Z,99231.40
2023-04-01T06:50:58.329Z,99241.20
2023-04-01T06:53:36.575Z,99243.60
2023-04-01T06:56:14.031Z,99250.20
2023-04-01T06:58:56.368Z,99261.80
2023-04-01T07:01:34.003Z,99264.60
2023-04-01T07:04:14.305Z,99272.00
2023-04-01T07:06:51.613Z,99271.60
2023-04-01T07:09:32.569Z,99277.20
2023-04-01T07:12:11.919Z,99283.60
2023-04-01T07:14:43.171Z,99284.80
2023-04-01T07:17:23.130Z,99285.00
2023-04-01T07:20:32.031Z,99284.60
2023-04-01T07:23:08.237Z,99294.00
2023-04-01T07:25:43.025Z,99292.00
2023-04-01T07:28:18.045Z,99299.60
2023-04-01T07:31:00.764Z,99298.80
2023-04-01T07:34:02.580Z,99294.00
2023-04-01T07:36:48.761Z,99300.20
2023-04-01T07:39:33.585Z,99307.40
2023-04-01T07:42:27.704Z,99299.40
2023-04-01T07:45:14.171Z,99306.60
2023-04-01T07:47:57.815Z,99305.60
2023-04-01T07:50:35.716Z,99308.40
2023-04-01T07:53:45.556Z,99316.80
2023-04-01T07:56:40.228Z,99313.80
2023-04-01T07:59:29.286Z,99320.40
2023-04-01T08:02:15.959Z,99319.80
2023-04-01T08:05:27.164Z,99323.60
2023-04-01T08:08:19.264Z,99321.80
2023-04-01T08:11:00.839Z,99328.80
2023-04-01T08:13:47.404Z,99328.60
2023-04-01T08:16:27.527Z,99327.20
2023-04-01T08:19:42.759Z,99335.20
2023-04-01T08:22:28.695Z,99339.60
2023-04-01T08:25:03.672Z,99345.40
2023-04-01T08:27:49.844Z,99349.80
2023-04-01T08:30:24.335Z,99349.00
2023-04-01T08:33:07.443Z,99350.60
2023-04-01T08:35:47.238Z,99353.60
2023-04-01T08:38:55.646Z,99354.20
2023-04-01T08:42:06.856Z,99353.20
2023-04-01T08:44:53.663Z,99364.00
2023-04-01T08:48:11.687Z,99368.20
2023-04-01T08:51:16.472Z,99370.60
2023-04-01T08:54:10.000Z,99371.40
2023-04-01T08:57:23.539Z,99379.60
2023-04-01T09:00:23.821Z,99378.00
2023-04-01T09:03:25.810Z,99381.20
2023-04-01T09:06:18.826Z,99388.40
2023-04-01T09:09:27.438Z,99393.40
2023-04-01T09:12:43.506Z,99401.40
2023-04-01T09:15:55.088Z,99402.80
2023-04-01T09:18:59.601Z,99402.40
2023-04-01T09:22:01.269Z,99400.60
2023-04-01T09:24:44.125Z,99406.20
2023-04-01T09:27:34.825Z,99410.60
2023-04-01T09:30:33.940Z,99417.20
2023-04-01T09:33:23.132Z,99409.60
2023-04-01T09:36:41.611Z,99419.40
2023-04-01T09:39:51.319Z,99424.20
2023-04-01T09:42:37.582Z,99423.80
2023-04-01T09:45:34.289Z,99427.20
2023-04-01T09:48:16.154Z,99437.20
2023-04-01T09:50:59.056Z,99434.40
2023-04-01T09:53:36.377Z,99434.40
2023-04-01T09:56:44.276Z,99438.40
2023-04-01T09:59:40.051Z,99434.60
2023-04-01T10:02:45.929Z,99442.60
2023-04-01T10:05:29.248Z,99448.80
2023-04-01T10:08:35.861Z,99451.60
2023-04-01T10:11:22.316Z,99451.80
2023-04-01T10:14:18.074Z,99468.00
2023-04-01T10:17:31.587Z,99463.60
2023-04-01T10:20:32.929Z,99472.20
2023-04-01T10:23:29.046Z,99479.80
2023-04-01T10:26:38.551Z,99484.80
2023-04-01T10:29:43.130Z,99482.20
2023-04-01T10:32:37.984Z,99489.20
2023-04-01T10:35:40.058Z,99488.60
2023-04-01T10:38:51.477Z,99487.40
2023-04-01T10:42:03.245Z,99492.00
2023-04-01T10:45:15.129Z,99492.40
2023-04-01T10:48:15.324Z,99499.40
2023-04-01T10:51:01.496Z,99497.80
2023-04-01T10:53:54.265Z,99504.80
2023-04-01T10:56:40.116Z,99506.00
2023-04-01T10:59:37.089Z,99509.00
2023-04-01T11:02:29.767Z,99513.00
2023-04-01T11:05:27.458Z,99510.40
2023-04-01T11:08:38.499Z,99508.80
2023-04-01T11:11:54.359Z,99519.80
2023-04-01T11:14:53.219Z,99520.80
2023-04-01T11:17:55.083Z,99523.80
2023-04-01T11:21:04.017Z,99527.80
2023-04-01T11:23:58.312Z,99534.00
2023-04-01T11:26:53.067Z,99537.80
2023-04-01T11:29:59.186Z,99542.20
2023-04-01T11:32:40.671Z,99552.40
2023-04-01T11:35:54.359Z,99561.60
2023-04-01T11:39:06.196Z,99551.60
2023-04-01T11:41:55.828Z,99564.60
2023-04-01T11:44:28.557Z,99553.20
2023-04-01T11:47:27.672Z,99545.60
2023-04-01T11:50:29.886Z,99553.40
2023-04-01T11:53:22.674Z,99556.20
2023-04-01T11:56:08.932Z,99556.80
2023-04-01T11:58:55.648Z,99551.80
2023-04-01T12:02:06.607Z,99556.80
2023-04-01T12:04:46.735Z,99562.00
2023-04-01T12:07:24.176Z,99565.40
2023-04-01T12:10:20.026Z,99563.40
2023-04-01T12:13:17.570Z,99572.00
2023-04-01T12:16:08.739Z,99565.20
2023-04-01T12:18:59.376Z,99570.60
2023-04-01T12:21:38.333Z,99568.80
2023-04-01T12:24:31.336Z,99582.20
2023-04-01T12:27:20.528Z,99575.60
2023-04-01T12:30:28.309Z,99579.80
2023-04-01T12:33:53.691Z,99591.00
2023-04-01T12:36:41.121Z,99590.80
2023-04-01T12:39:50.043Z,99579.60
2023-04-01T12:43:10.791Z,99594.00
2023-04-01T12:46:03.813Z,99597.40
2023-04-01T12:48:57.630Z,99599.60
2023-04-01T12:51:31.962Z,99606.40
2023-04-01T12:54:34.168Z,99611.00
2023-04-01T12:57:24.974Z,99619.60
2023-04-01T13:00:39.409Z,99627.80
2023-04-01T13:03:28.575Z,99629.80
2023-04-01T13:06:56.618Z,99629.60
2023-04-01T13:09:40.772Z,99639.60
2023-04-01T13:12:33.384Z,99644.60
2023-04-01T13:15:38.677Z,99647.80
2023-04-01T13:18:26.671Z,99661.40
2023-04-01T13:21:16.174Z,99670.60
2023-04-01T13:24:24.883Z,99679.40
2023-04-01T13:27:32.049Z,99670.00
2023-04-01T13:30:18.835Z,99675.80
2023-04-01T13:33:05.039Z,99679.60
2023-04-01T13:35:54.242Z,99674.20
2023-04-01T13:38:49.837Z,99672.60
2023-04-01T13:41:55.693Z,99678.40
2023-04-01T13:44:46.794Z,99681.40
2023-04-01T13:47:47.106Z,99685.40
2023-04-01T13:50:45.973Z,99693.80
2023-04-01T13:53:40.404Z,99698.60
2023-04-01T13:56:57.853Z,99698.20
2023-04-01T13:59:49.998Z,99702.60
2023-04-01T14:02:58.493Z,99706.00
2023-04-01T14:05:54.998Z,99714.00
2023-04-01T14:09:04.459Z,99712.40
2023-04-01T14:12:01.180Z,99720.40
2023-04-01T14:14:59.335Z,99724.60
2023-04-01T14:18:03.808Z,99723.40
2023-04-01T14:21:09.288Z,99720.00
2023-04-01T14:23:59.109Z,99737.80
2023-04-01T14:27:03.175Z,99732.40
2023-04-01T14:29:46.252Z,99741.20
2023-04-01T14:32:33.517Z,99744.80
2023-04-01T14:35:31.806Z,99752.80
2023-04-01T14:38:31.679Z,99743.40
2023-04-01T14:41:35.969Z,99748.00
2023-04-01T14:44:39.115Z,99748.80
2023-04-01T14:47:50.970Z,99746.00
2023-04-01T14:50:25.193Z,99753.80
2023-04-01T14:53:27.491Z,99755.20
2023-04-01T14:56:03.776Z,99759.60
2023-04-01T14:58:58.845Z,99761.00
2023-04-01T15:01:48.862Z,99769.40
2023-04-01T15:04:45.025Z,99776.80
2023-04-01T15:07:58.532Z,99771.00
2023-04-01T15:10:56.261Z,99775.00
2023-04-01T15:13:29.840Z,99785.40
2023-04-01T15:16:17.603Z,99788.00
2023-04-01T15:19:01.204Z,99789.00
2023-04-01T15:22:06.029Z,99793.00
2023-04-01T15:25:21.181Z,99800.80
2023-04-01T15:28:17.583Z,99810.80
2023-04-01T15:31:26.688Z,99814.00
2023-04-01T15:34:53.217Z,99811.20
2023-04-01T15:37:56.982Z,99829.80
2023-04-01T15:40:49.034Z,99831.60
2023-04-01T15:43:33.054Z,99838.80
2023-04-01T15:46:14.080Z,99832.60
2023-04-01T15:49:20.168Z,99836.80
2023-04-01T15:52:18.513Z,99843.40
2023-04-01T15:55:19.830Z,99852.60
2023-04-01T15:58:07.858Z,99853.40
2023-04-01T16:00:58.224Z,99856.40
2023-04-01T16:03:47.018Z,99853.60
2023-04-01T16:06:37.138Z,99867.20
2023-04-01T16:09:39.316Z,99872.00
2023-04-01T16:12:38.777Z,99874.40
2023-04-01T16:15:56.978Z,99874.20
2023-04-01T16:19:18.575Z,99882.40
2023-04-01T16:22:05.988Z,99888.00
2023-04-01T16:24:55.083Z,99894.60
2023-04-01T16:27:22.754Z,99897.20
2023-04-01T16:30:04.302Z,99898.00
2023-04-01T16:32:59.195Z,99895.20
2023-04-01T16:35:54.187Z,99905.40
2023-04-01T16:38:53.344Z,99902.80
2023-04-01T16:41:38.082Z,99909.00
2023-04-01T16:44:25.178Z,99908.60
2023-04-01T16:47:00.268Z,99912.60
2023-04-01T16:50:19.297Z,99920.40
2023-04-01T16:53:34.017Z,99933.60
2023-04-01T16:56:04.203Z,99937.00
2023-04-01T16:59:13.657Z,99940.80
2023-04-01T17:02:14.523Z,99949.60
2023-04-01T17:04:45.843Z,99944.60
2023-04-01T17:07:44.429Z,99952.20
2023-04-01T17:10:52.851Z,99955.20
2023-04-01T17:14:07.852Z,99968.60
2023-04-01T17:17:17.682Z,99965.40
2023-04-01T17:20:37.411Z,99977.40
2023-04-01T17:23:34.758Z,99977.00
2023-04-01T17:26:44.664Z,99986.40
2023-04-01T17:30:07.930Z,99987.60
2023-04-01T17:33:17.390Z,99995.40
2023-04-01T17:36:14.278Z,99998.60
2023-04-01T17:38:59.076Z,100003.60
2023-04-01T17:41:43.906Z,99997.60
2023-04-01T17:44:39.357Z,100002.80
2023-04-01T17:47:36.565Z,100009.40
2023-04-01T17:50:24.549Z,100016.60
2023-04-01T17:53:23.538Z,100022.80
2023-04-01T17:56:11.384Z,100028.40
2023-04-01T17:59:02.802Z,100028.80
2023-04-01T18:01:41.099Z,100030.80
2023-04-01T18:04:44.061Z,100039.40
2023-04-01T18:07:30.823Z,100035.20
2023-04-01T18:10:25.163Z,100043.00
2023-04-01T18:13:39.692Z,100047.60
2023-04-01T18:17:10.766Z,100046.40
2023-04-01T18:20:11.693Z,100055.80
2023-04-01T18:22:49.776Z,100056.60
2023-04-01T18:25:51.428Z,100061.80
2023-04-01T18:28:32.199Z,100066.80
2023-04-01T18:31:11.299Z,100071.00
2023-04-01T18:33:54.407Z,100065.00
2023-04-01T18:36:40.001Z,100071.80
2023-04-01T18:39:25.567Z,100080.60
2023-04-01T18:42:31.395Z,100079.40
2023-04-01T18:45:20.058Z,100087.80
2023-04-01T18:48:31.524Z,100085.00
2023-04-01T18:51:12.766Z,100089.00
2023-04-01T18:53:53.927Z,100091.80
2023-04-01T18:56:35.096Z,100089.40
2023-04-01T18:59:09.631Z,100096.20
2023-04-01T19:01:43.720Z,100088.60
2023-04-01T19:04:25.813Z,100100.20
2023-04-01T19:07:01.787Z,100111.00
2023-04-01T19:09:49.574Z,100114.20
2023-04-01T19:13:10.030Z,100117.60
2023-04-01T19:16:13.484Z,100111.60
2023-04-01T19:19:14.998Z,100121.00
2023-04-01T19:21:54.133Z,100130.20
2023-04-01T19:25:05.121Z,100123.00
2023-04-01T19:27:40.634Z,100131.40
2023-04-01T19:30:25.938Z,100132.60
2023-04-01T19:33:32.889Z,100137.40
2023-04-01T19:36:40.756Z,100133.20
2023-04-01T19:39:38.331Z,100141.40
2023-04-01T19:42:34.677Z,100143.40
2023-04-01T19:45:33.329Z,100147.00
2023-04-01T19:48:11.674Z,100148.40
2023-04-01T19:50:58.284Z,100145.40
2023-04-01T19:53:34.957Z,100150.40
2023-04-01T19:56:32.500Z,100155.40
2023-04-01T19:59:29.081Z,100158.00
2023-04-01T20:02:20.568Z,100161.80
2023-04-01T20:04:57.416Z,100173.40
2023-04-01T20:07:47.228Z,100173.80
2023-04-01T20:10:26.530Z,100178.00
2023-04-01T20:13:03.726Z,100184.40
2023-04-01T20:15:44.325Z,100183.40
2023-04-01T20:18:26.053Z,100178.80
2023-04-01T20:21:43.837Z,100193.40
2023-04-01T20:24:14.279Z,100194.80
2023-04-01T20:26:49.758Z,100192.20
2023-04-01T20:29:40.818Z,100191.20
2023-04-01T20:32:34.342Z,100207.00
2023-04-01T20:35:21.473Z,100195.60
2023-04-01T20:38:35.796Z,100197.00
2023-04-01T20:41:26.552Z,100193.80
2023-04-01T20:44:15.515Z,100198.40
2023-04-01T20:46:51.994Z,100203.60
2023-04-01T20:49:43.460Z,100201.80
2023-04-01T20:52:14.071Z,100212.20
2023-04-01T20:55:19.005Z,100215.20
2023-04-01T20:58:03.314Z,100216.20
2023-04-01T21:00:57.552Z,100218.00
2023-04-01T21:04:06.625Z,100222.20
2023-04-01T21:06:53.724Z,100208.40
2023-04-01T21:09:59.532Z,100219.00
2023-04-01T21:12:52.333Z,100233.00
2023-04-01T21:15:50.264Z,100227.20
2023-04-01T21:19:06.282Z,100242.60
2023-04-01T21:22:38.009Z,100244.60
2023-04-01T21:25:47.502Z,100256.40
2023-04-01T21:28:24.272Z,100254.00
2023-04-01T21:31:36.135Z,100258.60
2023-04-01T21:34:32.137Z,100262.20
2023-04-01T21:37:34.611Z,100264.20
2023-04-01T21:41:02.435Z,100273.20
2023-04-01T21:44:03.195Z,100275.00
2023-04-01T21:47:05.166Z,100275.40
2023-04-01T21:49:58.032Z,100274.80
2023-04-01T21:53:07.644Z,100275.00
2023-04-01T21:55:54.799Z,100272.80
2023-04-01T21:58:54.646Z,100281.40
2023-04-01T22:01:31.579Z,100281.40
2023-04-01T22:04:50.750Z,100281.40
2023-04-01T22:07:24.673Z,100286.40
2023-04-01T22:10:25.731Z,100276.20
2023-04-01T22:13:40.410Z,100285.40
2023-04-01T22:16:40.922Z,100292.60
2023-04-01T22:19:51.890Z,100290.40
2023-04-01T22:22:56.833Z,100298.20
2023-04-01T22:25:52.872Z,100303.60
2023-04-01T22:28:30.476Z,100304.20
2023-04-01T22:31:04.334Z,100305.60
2023-04-01T22:34:05.962Z,100315.40
2023-04-01T22:37:01.670Z,100317.80
2023-04-01T22:40:14.657Z,100320.80
2023-04-01T22:42:53.987Z,100326.20
2023-04-01T22:45:45.477Z,100328.20
2023-04-01T22:48:42.856Z,100329.80
2023-04-01T22:51:24.680Z,100328.00
2023-04-01T22:54:32.476Z,100335.60
2023-04-01T22:57:11.342Z,100345.20
2023-04-01T22:59:53.997Z,100346.20
2023-04-01T23:02:40.244Z,100345.40
2023-04-01T23:05:16.923Z,100347.80
2023-04-01T23:08:22.542Z,100343.60
2023-04-01T23:10:59.287Z,100359.60
2023-04-01T23:13:35.557Z,100362.00
2023-04-01T23:16:03.819Z,100369.80
2023-04-01T23:18:49.534Z,100367.80
2023-04-01T23:21:38.940Z,100364.00
2023-04-01T23:24:35.934Z,100375.00
2023-04-01T23:27:08.807Z,100365.20
2023-04-01T23:29:43.766Z,100374.60
2023-04-01T23:32:19.290Z,100376.20
2023-04-01T23:34:54.340Z,100373.60
2023-04-01T23:37:24.745Z,100374.60
2023-04-01T23:39:59.407Z,100373.00
2023-04-01T23:42:32.558Z,100370.40
2023-04-01T23:45:11.933Z,100364.80
2023-04-01T23:47:42.234Z,100376.20
2023-04-01T23:50:21.999Z,100372.20
2023-04-01T23:53:04.914Z,100373.60
2023-04-01T23:55:35.817Z,100365.20
2023-04-01T23:58:06.963Z,100366.20
